createdAt,value
2023-03-17T00:00:44.495Z,50.00
2023-03-17T00:03:20.570Z,60.80
2023-03-17T00:05:50.459Z,51.10
2023-03-17T00:08:23.222Z,54.70
2023-03-17T00:10:52.539Z,57.90
2023-03-17T00:13:23.553Z,56.60
2023-03-17T00:15:56.559Z,60.80
2023-03-17T00:18:25.913Z,61.10
2023-03-17T00:20:54.937Z,57.00
2023-03-17T00:23:25.144Z,58.80
2023-03-17T00:25:54.182Z,55.20
2023-03-17T00:28:25.382Z,55.60
2023-03-17T00:30:57.464Z,56.30
2023-03-17T00:33:28.877Z,52.60
2023-03-17T00:35:59.650Z,55.80
2023-03-17T00:38:29.332Z,52.70
2023-03-17T00:40:58.290Z,48.60
2023-03-17T00:43:29.741Z,50.40
2023-03-17T00:45:59.675Z,47.50
2023-03-17T00:48:30.626Z,54.60
2023-03-17T00:50:59.838Z,55.40
2023-03-17T00:53:30.224Z,54.90
2023-03-17T00:55:59.415Z,60.10
2023-03-17T00:58:30.880Z,59.00
2023-03-17T01:01:00.544Z,55.90
2023-03-17T01:03:30.705Z,66.90
2023-03-17T01:06:00.134Z,58.50
2023-03-17T01:08:30.260Z,62.50
2023-03-17T01:11:00.128Z,56.30
2023-03-17T01:13:29.518Z,50.00
2023-03-17T01:15:58.633Z,64.50
2023-03-17T01:18:27.761Z,57.40
2023-03-17T01:20:56.944Z,56.30
2023-03-17T01:23:26.112Z,47.60
2023-03-17T01:25:55.916Z,54.00
2023-03-17T01:28:25.209Z,53.30
2023-03-17T01:30:54.120Z,45.60
2023-03-17T01:33:23.289Z,54.10
2023-03-17T01:35:52.571Z,48.80
2023-03-17T01:38:23.480Z,51.40
2023-03-17T01:40:54.432Z,48.80
2023-03-17T01:43:26.586Z,44.20
2023-03-17T01:46:28.900Z,44.80
2023-03-17T01:49:05.864Z,44.50
2023-03-17T01:51:40.703Z,46.90
2023-03-17T01:56:43.028Z,48.90
2023-03-17T01:59:17.539Z,45.80
2023-03-17T02:01:50.722Z,52.20
2023-03-17T02:04:21.518Z,47.50
2023-03-17T02:06:57.844Z,46.10
2023-03-17T02:09:28.856Z,49.10
2023-03-17T02:12:00.620Z,41.20
2023-03-17T02:14:29.876Z,45.30
2023-03-17T02:16:59.175Z,45.70
2023-03-17T02:19:30.860Z,46.20
2023-03-17T02:22:00.951Z,48.80
2023-03-17T02:24:36.829Z,46.40
2023-03-17T02:27:12.630Z,43.20
2023-03-17T02:29:41.923Z,46.20
2023-03-17T02:32:14.333Z,44.30
2023-03-17T02:34:43.377Z,46.20
2023-03-17T02:37:15.052Z,48.30
2023-03-17T02:39:43.912Z,40.50
2023-03-17T02:42:15.712Z,41.40
2023-03-17T02:44:44.661Z,43.80
2023-03-17T02:47:17.073Z,41.30
2023-03-17T02:49:46.183Z,42.90
2023-03-17T02:52:15.218Z,42.40
2023-03-17T02:54:44.148Z,36.30
2023-03-17T02:57:13.247Z,41.60
2023-03-17T02:59:43.469Z,41.00
2023-03-17T03:02:12.581Z,37.90
2023-03-17T03:04:42.800Z,44.50
2023-03-17T03:07:12.373Z,48.00
2023-03-17T03:09:41.793Z,52.40
2023-03-17T03:12:11.449Z,49.00
2023-03-17T03:14:40.782Z,41.70
2023-03-17T03:17:10.285Z,42.40
2023-03-17T03:19:39.576Z,41.90
2023-03-17T03:22:08.718Z,38.60
2023-03-17T03:24:38.028Z,41.30
2023-03-17T03:27:07.161Z,42.80
2023-03-17T03:29:36.073Z,47.00
2023-03-17T03:32:06.267Z,39.90
2023-03-17T03:34:35.151Z,39.30
2023-03-17T03:37:04.124Z,54.00
2023-03-17T03:39:33.043Z,42.10
2023-03-17T03:42:01.960Z,44.60
2023-03-17T03:44:30.890Z,43.80
2023-03-17T03:46:59.741Z,49.20
2023-03-17T03:49:28.623Z,45.00
2023-03-17T03:51:58.284Z,40.40
2023-03-17T03:54:27.318Z,43.10
2023-03-17T03:56:56.231Z,47.10
2023-03-17T03:59:25.154Z,42.20
2023-03-17T04:01:54.072Z,42.60
2023-03-17T04:04:23.363Z,37.80
2023-03-17T04:07:05.673Z,39.40
2023-03-17T04:09:35.238Z,39.60
2023-03-17T04:12:08.640Z,41.50
2023-03-17T04:14:49.089Z,39.80
2023-03-17T04:17:34.901Z,38.00
2023-03-17T04:20:04.342Z,52.30
2023-03-17T04:22:33.417Z,47.90
2023-03-17T04:25:02.369Z,54.60
2023-03-17T04:35:00.508Z,50.60
2023-03-17T04:37:29.669Z,56.60
2023-03-17T04:39:58.667Z,49.30
2023-03-17T04:42:27.650Z,48.50
2023-03-17T04:44:56.747Z,44.50
2023-03-17T04:47:25.747Z,53.00
2023-03-17T04:49:54.911Z,47.70
2023-03-17T04:52:24.097Z,55.80
2023-03-17T04:54:53.266Z,46.60
2023-03-17T04:57:23.923Z,51.00
2023-03-17T04:59:55.282Z,48.00
2023-03-17T05:02:28.715Z,57.10
2023-03-17T05:04:57.859Z,56.30
2023-03-17T05:07:26.871Z,55.10
2023-03-17T05:09:56.742Z,53.80
2023-03-17T05:12:25.756Z,51.70
2023-03-17T05:14:54.623Z,52.30
2023-03-17T05:17:23.488Z,50.40
2023-03-17T05:19:52.413Z,55.80
2023-03-17T05:25:08.451Z,57.80
2023-03-17T05:27:37.613Z,60.40
2023-03-17T05:30:08.926Z,50.00
2023-03-17T05:32:38.056Z,46.30
2023-03-17T05:35:09.164Z,47.90
2023-03-17T05:37:38.574Z,50.30
2023-03-17T05:40:09.113Z,45.50
2023-03-17T05:42:38.567Z,47.10
2023-03-17T05:45:09.801Z,51.80
2023-03-17T05:47:38.899Z,47.40
2023-03-17T05:50:10.711Z,52.80
2023-03-17T05:52:40.053Z,48.50
2023-03-17T05:55:11.375Z,50.10
2023-03-17T05:57:42.645Z,51.00
2023-03-17T06:00:18.530Z,46.70
2023-03-17T06:02:47.649Z,45.80
2023-03-17T06:05:18.278Z,43.40
2023-03-17T06:07:54.813Z,35.00
2023-03-17T06:10:25.448Z,37.60
2023-03-17T06:12:55.289Z,36.80
2023-03-17T06:15:26.161Z,38.70
2023-03-17T06:17:55.151Z,33.40
2023-03-17T06:20:40.304Z,31.50
2023-03-17T06:23:09.385Z,34.80
2023-03-17T06:25:40.564Z,34.90
2023-03-17T06:28:09.974Z,30.10
2023-03-17T06:30:40.737Z,30.30
2023-03-17T06:33:10.657Z,36.40
2023-03-17T06:35:40.212Z,34.10
2023-03-17T06:38:09.185Z,34.10
2023-03-17T06:40:38.258Z,32.30
2023-03-17T06:43:07.933Z,28.90
2023-03-17T06:45:37.370Z,27.70
2023-03-17T06:48:07.485Z,28.60
2023-03-17T06:50:36.698Z,29.20
2023-03-17T06:53:06.760Z,23.30
2023-03-17T06:55:35.869Z,25.60
2023-03-17T06:58:04.823Z,25.20
2023-03-17T07:00:33.830Z,23.00
2023-03-17T07:03:04.420Z,23.80
2023-03-17T07:05:33.872Z,19.90
2023-03-17T07:08:03.177Z,19.00
2023-03-17T07:10:33.009Z,16.60
2023-03-17T07:13:02.555Z,22.00
2023-03-17T07:15:34.541Z,18.90
2023-03-17T07:18:03.988Z,14.60
2023-03-17T07:20:33.149Z,21.80
2023-03-17T07:23:08.854Z,16.80
2023-03-17T07:25:39.304Z,19.00
2023-03-17T07:28:08.412Z,17.50
2023-03-17T07:30:40.887Z,15.90
2023-03-17T07:33:11.225Z,18.40
2023-03-17T07:35:40.666Z,16.50
2023-03-17T07:38:09.589Z,16.30
2023-03-17T07:40:38.761Z,16.40
2023-03-17T07:43:07.881Z,16.90
2023-03-17T07:45:36.974Z,17.40
2023-03-17T07:48:08.334Z,19.30
2023-03-17T07:50:38.190Z,16.40
2023-03-17T07:53:07.415Z,14.00
2023-03-17T07:55:38.632Z,13.10
2023-03-17T07:58:08.943Z,13.00
2023-03-17T08:00:38.058Z,15.00
2023-03-17T08:03:10.779Z,16.20
2023-03-17T08:05:40.719Z,20.00
2023-03-17T08:08:10.259Z,18.70
2023-03-17T08:10:39.903Z,18.80
2023-03-17T08:13:10.130Z,16.80
2023-03-17T08:15:39.269Z,15.50
2023-03-17T08:18:08.808Z,16.80
2023-03-17T08:20:38.810Z,14.90
2023-03-17T08:23:08.254Z,15.90
2023-03-17T08:25:37.265Z,21.30
2023-03-17T08:28:06.555Z,15.80
2023-03-17T08:30:36.054Z,12.10
2023-03-17T08:33:05.774Z,15.90
2023-03-17T08:35:35.076Z,17.80
2023-03-17T08:38:04.730Z,15.20
2023-03-17T08:40:34.484Z,13.80
2023-03-17T08:43:04.531Z,14.50
2023-03-17T08:45:33.753Z,13.10
2023-03-17T08:48:04.119Z,17.10
2023-03-17T08:50:34.010Z,14.10
2023-03-17T08:53:03.906Z,16.10
2023-03-17T08:55:33.008Z,16.70
2023-03-17T08:58:02.316Z,16.30
2023-03-17T09:00:31.585Z,11.60
2023-03-17T09:03:01.150Z,12.80
2023-03-17T09:05:31.280Z,13.10
2023-03-17T09:08:00.735Z,14.70
2023-03-17T09:10:30.312Z,15.50
2023-03-17T09:13:03.578Z,14.20
2023-03-17T09:15:34.332Z,21.40
2023-03-17T09:18:04.270Z,19.30
2023-03-17T09:20:33.963Z,13.10
2023-03-17T09:23:09.975Z,16.30
2023-03-17T09:25:42.063Z,12.30
2023-03-17T09:28:12.976Z,17.50
2023-03-17T09:30:44.811Z,11.50
2023-03-17T09:33:15.482Z,14.90
2023-03-17T09:35:45.075Z,10.90
2023-03-17T09:38:14.227Z,16.50
2023-03-17T09:40:49.673Z,14.20
2023-03-17T09:43:32.019Z,16.10
2023-03-17T09:46:16.864Z,18.20
2023-03-17T09:48:58.817Z,14.50
2023-03-17T09:51:32.397Z,15.10
2023-03-17T09:54:04.177Z,13.10
2023-03-17T09:56:36.774Z,15.20
2023-03-17T09:59:15.998Z,18.20
2023-03-17T10:01:45.319Z,11.00
2023-03-17T10:04:17.530Z,12.90
2023-03-17T10:06:50.367Z,16.80
2023-03-17T10:09:27.049Z,12.50
2023-03-17T10:12:03.902Z,11.20
2023-03-17T10:14:54.759Z,13.70
2023-03-17T10:17:26.542Z,8.60
2023-03-17T10:20:01.219Z,10.50
2023-03-17T10:22:37.568Z,10.20
2023-03-17T10:25:14.377Z,12.20
2023-03-17T10:27:48.095Z,13.80
2023-03-17T10:30:19.274Z,10.10
2023-03-17T10:32:51.469Z,11.30
2023-03-17T10:35:24.176Z,8.40
2023-03-17T10:38:04.435Z,11.70
2023-03-17T10:40:41.223Z,12.00
2023-03-17T10:43:20.139Z,14.10
2023-03-17T10:45:59.060Z,8.30
2023-03-17T10:48:29.628Z,8.10
2023-03-17T10:50:59.972Z,9.40
2023-03-17T10:53:37.509Z,7.30
2023-03-17T10:56:11.575Z,7.40
2023-03-17T10:58:46.507Z,11.70
2023-03-17T11:01:21.908Z,6.40
2023-03-17T11:03:51.407Z,6.40
2023-03-17T11:06:31.160Z,7.80
2023-03-17T11:09:09.851Z,7.40
2023-03-17T11:11:46.365Z,6.40
2023-03-17T11:14:18.215Z,5.90
2023-03-17T11:16:54.301Z,10.00
2023-03-17T11:19:31.958Z,6.90
2023-03-17T11:22:10.330Z,6.70
2023-03-17T11:24:46.263Z,7.30
2023-03-17T11:27:25.116Z,7.20
2023-03-17T11:30:14.910Z,7.20
2023-03-17T11:32:55.044Z,11.00
2023-03-17T11:35:35.509Z,7.40
2023-03-17T11:38:19.521Z,5.70
2023-03-17T11:41:16.848Z,7.40
2023-03-17T11:44:13.414Z,8.60
2023-03-17T11:46:48.814Z,10.80
2023-03-17T11:49:22.503Z,6.70
2023-03-17T11:52:01.119Z,7.00
2023-03-17T11:54:43.765Z,5.90
2023-03-17T11:57:18.633Z,8.70
2023-03-17T12:02:23.514Z,7.00
2023-03-17T12:04:56.954Z,5.10
2023-03-17T12:07:30.452Z,13.40
2023-03-17T12:10:08.541Z,8.60
2023-03-17T12:12:44.556Z,9.10
2023-03-17T12:15:20.695Z,8.50
2023-03-17T12:17:58.599Z,7.20
2023-03-17T12:20:35.398Z,6.80
2023-03-17T12:23:12.430Z,11.10
2023-03-17T12:25:50.866Z,7.10
2023-03-17T12:28:24.672Z,9.10
2023-03-17T12:31:00.085Z,11.70
2023-03-17T12:33:36.954Z,10.40
2023-03-17T12:36:08.589Z,10.60
2023-03-17T12:38:41.238Z,5.90
2023-03-17T12:41:34.112Z,6.70
2023-03-17T12:44:08.302Z,6.70
2023-03-17T12:47:02.297Z,7.60
2023-03-17T12:50:10.712Z,7.00
2023-03-17T12:53:02.390Z,9.90
2023-03-17T12:55:35.731Z,7.30
2023-03-17T12:58:07.691Z,7.00
2023-03-17T13:00:50.558Z,6.80
2023-03-17T13:03:25.268Z,6.40
2023-03-17T13:08:30.475Z,8.40
2023-03-17T13:11:27.077Z,17.00
2023-03-17T13:14:15.875Z,14.40
2023-03-17T13:16:49.312Z,6.70
2023-03-17T13:19:33.532Z,6.70
2023-03-17T13:22:34.959Z,6.40
2023-03-17T13:25:30.164Z,6.10
2023-03-17T13:28:22.692Z,10.00
2023-03-17T13:31:09.206Z,8.30
2023-03-17T13:33:44.542Z,6.80
2023-03-17T13:36:37.672Z,9.60
2023-03-17T13:39:52.380Z,11.10
2023-03-17T13:42:43.611Z,8.80
2023-03-17T13:45:37.873Z,10.60
2023-03-17T13:48:32.696Z,8.60
2023-03-17T13:51:18.142Z,6.40
2023-03-17T13:53:53.832Z,7.50
2023-03-17T13:56:30.080Z,7.70
2023-03-17T13:59:08.749Z,9.50
2023-03-17T14:01:43.415Z,9.80
2023-03-17T14:07:18.379Z,8.30
2023-03-17T14:09:49.211Z,10.30
2023-03-17T14:12:23.176Z,8.50
2023-03-17T14:15:06.494Z,8.70
2023-03-17T14:17:52.717Z,9.20
2023-03-17T14:22:57.350Z,6.40
2023-03-17T14:25:31.201Z,9.70
2023-03-17T14:28:04.055Z,10.90
2023-03-17T14:30:34.592Z,10.00
2023-03-17T14:33:06.738Z,14.40
2023-03-17T14:35:39.350Z,9.60
2023-03-17T14:38:19.261Z,14.40
2023-03-17T14:40:49.029Z,10.80
2023-03-17T14:43:18.520Z,13.20
2023-03-17T14:45:52.457Z,11.00
2023-03-17T14:48:27.341Z,10.90
2023-03-17T14:51:08.202Z,7.30
2023-03-17T14:53:42.735Z,10.70
2023-03-17T14:56:12.426Z,12.10
2023-03-17T14:58:46.367Z,9.50
2023-03-17T15:01:20.567Z,9.90
2023-03-17T15:03:57.974Z,33.60
2023-03-17T15:06:29.660Z,16.70
2023-03-17T15:09:04.318Z,12.40
2023-03-17T15:11:41.951Z,11.50
2023-03-17T15:14:22.492Z,10.70
2023-03-17T15:16:53.330Z,12.30
2023-03-17T15:19:28.746Z,14.60
2023-03-17T15:22:00.243Z,11.10
2023-03-17T15:24:55.701Z,11.50
2023-03-17T15:27:30.398Z,20.50
2023-03-17T15:32:56.037Z,12.90
2023-03-17T15:35:27.467Z,13.40
2023-03-17T15:37:59.890Z,14.60
2023-03-17T15:40:29.688Z,15.80
2023-03-17T15:43:00.251Z,14.90
2023-03-17T15:45:29.306Z,16.90
2023-03-17T15:47:58.589Z,15.90
2023-03-17T15:50:31.034Z,20.80
2023-03-17T15:53:05.592Z,15.90
2023-03-17T15:59:51.903Z,15.00
2023-03-17T16:02:57.237Z,18.90
2023-03-17T16:05:32.797Z,16.90
2023-03-17T16:08:04.811Z,15.20
2023-03-17T16:11:08.009Z,13.70
2023-03-17T16:14:10.739Z,19.00
2023-03-17T16:17:50.725Z,18.50
2023-03-17T16:20:05.630Z,21.50
2023-03-17T16:23:11.682Z,22.40
2023-03-17T16:25:59.278Z,17.10
2023-03-17T16:32:46.348Z,18.20
2023-03-17T16:36:15.704Z,28.10
2023-03-17T16:38:44.073Z,30.20
2023-03-17T16:46:16.474Z,28.70
2023-03-17T16:54:43.630Z,25.00
2023-03-17T16:57:19.391Z,27.70
2023-03-17T16:57:39.570Z,21.50
2023-03-17T16:57:50.871Z,33.00
2023-03-17T16:59:50.374Z,25.00
2023-03-17T17:02:27.068Z,25.00
2023-03-17T17:05:09.308Z,20.00
2023-03-17T17:07:56.073Z,23.30
2023-03-17T17:10:54.349Z,21.20
2023-03-17T17:23:15.706Z,12.10
2023-03-17T17:29:00.475Z,16.00
2023-03-17T17:32:35.457Z,13.20
2023-03-17T18:04:03.806Z,13.70
2023-03-17T18:38:55.454Z,20.00
2023-03-17T18:39:40.818Z,13.80
2023-03-17T18:41:45.234Z,15.60
2023-03-17T18:44:21.388Z,24.10
2023-03-17T18:50:35.269Z,20.80
2023-03-17T18:54:00.137Z,20.20
2023-03-17T18:56:43.317Z,19.40
2023-03-17T18:59:18.020Z,16.40
2023-03-17T19:02:00.931Z,17.00
2023-03-17T19:05:12.209Z,15.70
2023-03-17T19:08:06.990Z,16.30
2023-03-17T19:10:57.059Z,19.10
2023-03-17T19:13:29.783Z,17.50
2023-03-17T19:31:48.698Z,18.10
2023-03-17T19:35:15.559Z,16.10
2023-03-17T19:45:23.146Z,16.80
2023-03-17T19:47:38.337Z,16.20
2023-03-17T19:47:55.064Z,17.20
2023-03-17T19:50:30.930Z,16.40
2023-03-17T19:53:06.664Z,21.50
2023-03-17T19:55:43.925Z,17.70
2023-03-17T19:58:21.970Z,18.80
2023-03-17T20:00:56.703Z,17.30
2023-03-17T20:03:38.007Z,17.70
2023-03-17T20:06:11.160Z,16.90
2023-03-17T20:08:45.574Z,14.50
2023-03-17T20:11:23.997Z,16.80
2023-03-17T20:13:56.569Z,14.80
2023-03-17T20:16:27.654Z,15.60
2023-03-17T20:18:59.328Z,20.10
2023-03-17T20:21:42.271Z,16.00
2023-03-17T20:24:15.012Z,19.20
2023-03-17T20:26:48.861Z,16.00
2023-03-17T20:29:26.820Z,18.00
2023-03-17T20:32:01.138Z,20.70
2023-03-17T20:34:31.529Z,15.50
2023-03-17T20:37:04.291Z,17.80
2023-03-17T20:39:44.873Z,16.00
2023-03-17T20:42:17.561Z,19.70
2023-03-17T20:44:52.896Z,14.70
2023-03-17T20:47:25.932Z,20.70
2023-03-17T20:49:58.536Z,18.40
2023-03-17T20:52:30.696Z,16.50
2023-03-17T20:55:02.562Z,18.30
2023-03-17T20:57:33.690Z,17.20
2023-03-17T21:00:08.282Z,17.50
2023-03-17T21:02:39.457Z,16.90
2023-03-17T21:05:13.006Z,18.00
2023-03-17T21:07:46.853Z,19.70
2023-03-17T21:10:21.661Z,16.40
2023-03-17T21:15:24.503Z,16.30
2023-03-17T21:17:54.929Z,16.90
2023-03-17T21:20:25.751Z,16.40
2023-03-17T21:22:55.804Z,14.30
2023-03-17T21:25:29.279Z,19.10
2023-03-17T21:28:00.156Z,15.70
2023-03-17T21:30:33.498Z,16.00
2023-03-17T21:33:03.852Z,19.20
2023-03-17T21:35:36.982Z,17.40
2023-03-17T21:38:08.589Z,18.60
2023-03-17T21:40:38.068Z,18.00
2023-03-17T21:43:08.730Z,17.20
2023-03-17T21:45:38.638Z,16.70
2023-03-17T21:48:25.632Z,16.00
2023-03-17T21:50:59.938Z,17.80
2023-03-17T21:53:31.942Z,19.70
2023-03-17T22:10:46.028Z,20.60
2023-03-17T22:13:14.921Z,16.80
2023-03-17T22:15:44.409Z,20.50
2023-03-17T22:18:13.955Z,18.70
2023-03-17T22:23:47.507Z,16.40
2023-03-17T22:26:19.546Z,22.70
2023-03-17T22:28:49.975Z,20.10
2023-03-17T22:32:00.165Z,21.50
2023-03-17T22:34:32.296Z,23.60
2023-03-17T22:37:02.571Z,20.10
2023-03-17T22:39:34.995Z,18.10
2023-03-17T22:42:04.194Z,20.50
2023-03-17T22:44:33.203Z,18.30
2023-03-17T22:47:02.312Z,17.40
2023-03-17T22:49:31.700Z,20.50
2023-03-17T22:52:00.628Z,17.70
2023-03-17T22:54:29.560Z,21.60
2023-03-17T22:57:14.106Z,20.70
2023-03-17T22:59:52.951Z,19.30
2023-03-17T23:02:21.920Z,17.00
2023-03-17T23:04:51.361Z,17.40
2023-03-17T23:07:20.644Z,20.90
2023-03-17T23:09:49.594Z,18.40
2023-03-17T23:12:22.568Z,18.00
2023-03-17T23:14:51.841Z,22.00
2023-03-17T23:17:20.752Z,19.50
2023-03-17T23:19:50.007Z,20.40
2023-03-17T23:22:20.535Z,19.30
2023-03-17T23:24:50.333Z,18.30
2023-03-17T23:27:19.178Z,19.40
2023-03-17T23:29:48.082Z,21.50
2023-03-17T23:32:17.210Z,19.90
2023-03-17T23:34:46.537Z,19.80
2023-03-17T23:37:16.009Z,21.70
2023-03-17T23:39:45.321Z,21.40
2023-03-17T23:42:43.438Z,14.90
2023-03-17T23:48:46.138Z,23.30
